Observation data for Plainview on 01/18/2019      Previous  Date  Next       Current Mesonet Observations  Soil Data  Daily Summary Page  Observations in Plain Language
KPVS 180600Z 20004KT 04/M02 A2999 RMK A01 T00391015  RH  069%=      5-min Rain = 0
KPVS 180605Z 21005KT 04/M01 A2999 RMK A01 T00411013  RH  069%=      5-min Rain = 0
KPVS 180610Z 22004KT 05/M01 A2999 RMK A01 T00461011  RH  068%=      5-min Rain = 0
KPVS 180615Z 22004KT 05/M01 A2999 RMK A01 T00471011  RH  067%=      5-min Rain = 0
KPVS 180620Z 22004KT 05/M01 A2999 RMK A01 T00461011  RH  068%=      5-min Rain = 0
KPVS 180625Z 22007KT 05/M01 A2998 RMK A01 T00521007  RH  067%=      5-min Rain = 0
KPVS 180630Z 22009KT 06/M01 A2998 RMK A01 T00601007  RH  063%=      5-min Rain = 0
KPVS 180635Z 21010KT 06/M01 A2998 RMK A01 T00631007  RH  062%=      5-min Rain = 0
KPVS 180640Z 21011KT 07/M01 A2997 RMK A01 T00651007  RH  061%=      5-min Rain = 0
KPVS 180645Z 21012KT 07/M01 A2997 RMK A01 T00651006  RH  061%=      5-min Rain = 0
KPVS 180650Z 21012KT 07/M01 A2997 RMK A01 T00661006  RH  061%=      5-min Rain = 0
KPVS 180655Z 21013KT 07/M01 A2997 RMK A01 T00671005  RH  061%=      5-min Rain = 0
KPVS 180700Z 21013KT 07/M00 A2997 RMK A01 T00691004  RH  060%=      5-min Rain = 0
KPVS 180705Z 21013KT 07/M00 A2997 RMK A01 T00701004  RH  060%=      5-min Rain = 0
KPVS 180710Z 21014G20KT 07/M00 A2997 RMK A01 T00711003  RH  060%=      5-min Rain = 0
KPVS 180715Z 21015KT 07/M00 A2997 RMK A01 T00731002  RH  060%=      5-min Rain = 0
KPVS 180720Z 22013G18KT 07/M00 A2997 RMK A01 T00731002  RH  060%=      5-min Rain = 0
KPVS 180725Z 21015KT 07/M00 A2997 RMK A01 T00721001  RH  060%=      5-min Rain = 0
KPVS 180730Z 21014G20KT 07/00 A2996 RMK A01 T007400-0  RH  060%=      5-min Rain = 0
KPVS 180735Z 21015KT 08/00 A2996 RMK A01 T00750000  RH  060%=      5-min Rain = 0
KPVS 180740Z 21014KT 07/00 A2996 RMK A01 T00740000  RH  060%=      5-min Rain = 0
KPVS 180745Z 22012KT 07/00 A2995 RMK A01 T00730001  RH  061%=      5-min Rain = 0
KPVS 180750Z 21013KT 07/00 A2995 RMK A01 T00730001  RH  061%=      5-min Rain = 0
KPVS 180755Z 21014KT 07/00 A2994 RMK A01 T00730001  RH  061%=      5-min Rain = 0
KPVS 180800Z 21013KT 07/00 A2994 RMK A01 T00710000  RH  061%=      5-min Rain = 0
KPVS 180805Z 21012KT 07/00 A2994 RMK A01 T00690000  RH  062%=      5-min Rain = 0
KPVS 180810Z 21011KT 07/00 A2993 RMK A01 T006800-0  RH  062%=      5-min Rain = 0
KPVS 180815Z 22009KT 07/00 A2994 RMK A01 T006700-0  RH  063%=      5-min Rain = 0
KPVS 180820Z 22008KT 06/M00 A2994 RMK A01 T00641001  RH  064%=      5-min Rain = 0
KPVS 180825Z 23008KT 06/00 A2993 RMK A01 T006300-0  RH  065%=      5-min Rain = 0
KPVS 180830Z 23008KT 06/00 A2993 RMK A01 T006300-0  RH  065%=      5-min Rain = 0
KPVS 180835Z 23007KT 06/M00 A2993 RMK A01 T00611001  RH  065%=      5-min Rain = 0
KPVS 180840Z 24005KT 06/M00 A2993 RMK A01 T00591001  RH  066%=      5-min Rain = 0
KPVS 180845Z 24005KT 06/M00 A2993 RMK A01 T00571001  RH  067%=      5-min Rain = 0
KPVS 180850Z 22005KT 06/M00 A2993 RMK A01 T00551002  RH  068%=      5-min Rain = 0
KPVS 180855Z 22006KT 06/M00 A2992 RMK A01 T00551001  RH  068%=      5-min Rain = 0
KPVS 180900Z 22007KT 06/00 A2992 RMK A01 T00570000  RH  068%=      5-min Rain = 0
KPVS 180905Z 21009KT 06/00 A2991 RMK A01 T00630002  RH  066%=      5-min Rain = 0
KPVS 180910Z 21008KT 07/00 A2991 RMK A01 T00660003  RH  065%=      5-min Rain = 0
KPVS 180915Z 21011KT 07/00 A2991 RMK A01 T00680004  RH  064%=      5-min Rain = 0
KPVS 180920Z 22012KT 07/00 A2991 RMK A01 T00680003  RH  064%=      5-min Rain = 0
KPVS 180925Z 22011KT 07/00 A299 RMK A01 T00670003  RH  064%=      5-min Rain = 0
KPVS 180930Z 22009KT 06/00 A2991 RMK A01 T00630002  RH  066%=      5-min Rain = 0
KPVS 180935Z 22009KT 06/00 A2991 RMK A01 T00600001  RH  067%=      5-min Rain = 0
KPVS 180940Z 23008KT 06/00 A2991 RMK A01 T00570001  RH  068%=      5-min Rain = 0
KPVS 180945Z 23008KT 06/00 A2991 RMK A01 T00550000  RH  069%=      5-min Rain = 0
KPVS 180950Z 23008KT 05/00 A2991 RMK A01 T005300-0  RH  069%=      5-min Rain = 0
KPVS 180955Z 22007KT 05/M00 A299 RMK A01 T00501001  RH  071%=      5-min Rain = 0
KPVS 181000Z 22007KT 05/M00 A2989 RMK A01 T00471002  RH  072%=      5-min Rain = 0
KPVS 181005Z 22009KT 05/M00 A2989 RMK A01 T00451002  RH  072%=      5-min Rain = 0
KPVS 181010Z 22008KT 04/M00 A2989 RMK A01 T00431003  RH  073%=      5-min Rain = 0
KPVS 181015Z 23007KT 04/M00 A2988 RMK A01 T00421003  RH  073%=      5-min Rain = 0
KPVS 181020Z 24006KT 04/M00 A2988 RMK A01 T00391004  RH  074%=      5-min Rain = 0
KPVS 181025Z 24007KT 04/M00 A2988 RMK A01 T00381004  RH  075%=      5-min Rain = 0
KPVS 181030Z 24006KT 04/M00 A2987 RMK A01 T00381004  RH  075%=      5-min Rain = 0
KPVS 181035Z 24007KT 04/M01 A2987 RMK A01 T00371005  RH  075%=      5-min Rain = 0
KPVS 181040Z 23008KT 04/M01 A2987 RMK A01 T00371005  RH  075%=      5-min Rain = 0
KPVS 181045Z 23008KT 04/M01 A2986 RMK A01 T00371005  RH  075%=      5-min Rain = 0
KPVS 181050Z 23007KT 04/M01 A2986 RMK A01 T00361005  RH  075%=      5-min Rain = 0
KPVS 181055Z 24007KT 03/M01 A2986 RMK A01 T00331007  RH  076%=      5-min Rain = 0
KPVS 181100Z 24006KT 03/M01 A2986 RMK A01 T00301008  RH  077%=      5-min Rain = 0
KPVS 181105Z 24007KT 03/M01 A2985 RMK A01 T00281008  RH  078%=      5-min Rain = 0
KPVS 181110Z 23006KT 03/M01 A2985 RMK A01 T00261009  RH  079%=      5-min Rain = 0
KPVS 181115Z 23006KT 03/M01 A2984 RMK A01 T00261009  RH  079%=      5-min Rain = 0
KPVS 181120Z 25006KT 03/M01 A2984 RMK A01 T00261009  RH  079%=      5-min Rain = 0
KPVS 181125Z 24005KT 03/M01 A2984 RMK A01 T00261009  RH  079%=      5-min Rain = 0
KPVS 181130Z 24004KT 03/M01 A2983 RMK A01 T00261009  RH  079%=      5-min Rain = 0
KPVS 181135Z 25004KT 03/M01 A2983 RMK A01 T00261009  RH  079%=      5-min Rain = 0
KPVS 181140Z 25005KT 03/M01 A2983 RMK A01 T00281008  RH  079%=      5-min Rain = 0
KPVS 181145Z 24004KT 03/M01 A2982 RMK A01 T00291007  RH  078%=      5-min Rain = 0
KPVS 181150Z 23004KT 03/M01 A2981 RMK A01 T00311006  RH  077%=      5-min Rain = 0
KPVS 181155Z 23005KT 03/M01 A2982 RMK A01 T00311006  RH  077%=      5-min Rain = 0
KPVS 181200Z 24005KT 03/M01 A2981 RMK A01 T00331006  RH  077%=      5-min Rain = 0
KPVS 181205Z 22004KT 03/M01 A298 RMK A01 T00341005  RH  076%=      5-min Rain = 0
KPVS 181210Z 23005KT 04/M01 A298 RMK A01 T00361005  RH  076%=      5-min Rain = 0
KPVS 181215Z 23005KT 04/M01 A298 RMK A01 T00361005  RH  075%=      5-min Rain = 0
KPVS 181220Z 23006KT 04/M01 A298 RMK A01 T00361005  RH  075%=      5-min Rain = 0
KPVS 181225Z 22007KT 04/M01 A2981 RMK A01 T00351005  RH  075%=      5-min Rain = 0
KPVS 181230Z 23006KT 03/M01 A2981 RMK A01 T00331006  RH  076%=      5-min Rain = 0
KPVS 181235Z 23006KT 03/M01 A2981 RMK A01 T00321006  RH  077%=      5-min Rain = 0
KPVS 181240Z 23006KT 03/M01 A2981 RMK A01 T00331005  RH  077%=      5-min Rain = 0
KPVS 181245Z 24006KT 04/M00 A2981 RMK A01 T00351003  RH  077%=      5-min Rain = 0
KPVS 181250Z 24007KT 04/00 A2981 RMK A01 T00420001  RH  075%=      5-min Rain = 0
KPVS 181255Z 23009KT 05/00 A2981 RMK A01 T00510002  RH  072%=      5-min Rain = 0
KPVS 181300Z 24008KT 05/00 A2981 RMK A01 T00530002  RH  070%=      5-min Rain = 0
KPVS 181305Z 24009KT 05/00 A2981 RMK A01 T00540002  RH  070%=      5-min Rain = 0
KPVS 181310Z 23008KT 05/00 A298 RMK A01 T00530002  RH  070%=      5-min Rain = 0
KPVS 181315Z 23008KT 05/00 A298 RMK A01 T00530002  RH  070%=      5-min Rain = 0
KPVS 181320Z 24007KT 05/00 A298 RMK A01 T00540002  RH  070%=      5-min Rain = 0
KPVS 181325Z 24008KT 06/00 A2981 RMK A01 T00560003  RH  069%=      5-min Rain = 0
KPVS 181330Z 24008KT 06/00 A298 RMK A01 T00580003  RH  069%=      5-min Rain = 0
KPVS 181335Z 24007KT 06/00 A298 RMK A01 T00590003  RH  068%=      5-min Rain = 0
KPVS 181340Z 24007KT 06/00 A298 RMK A01 T00580003  RH  069%=      5-min Rain = 0
KPVS 181345Z 24008KT 06/00 A298 RMK A01 T00590004  RH  068%=      5-min Rain = 0
KPVS 181350Z 24008KT 06/01 A298 RMK A01 T00610005  RH  068%=      5-min Rain = 0
KPVS 181355Z 23008G13KT 06/01 A298 RMK A01 T00630006  RH  068%=      5-min Rain = 0
KPVS 181400Z 24008KT 07/01 A298 RMK A01 T00650007  RH  067%=      5-min Rain = 0
KPVS 181405Z 23009KT 07/01 A298 RMK A01 T00690008  RH  066%=      5-min Rain = 0
KPVS 181410Z 23009KT 07/01 A298 RMK A01 T00700009  RH  065%=      5-min Rain = 0
KPVS 181415Z 24008G13KT 07/01 A298 RMK A01 T00700008  RH  066%=      5-min Rain = 0
KPVS 181420Z 24009G14KT 07/01 A298 RMK A01 T00680008  RH  066%=      5-min Rain = 0
KPVS 181425Z 24009G15KT 07/01 A2979 RMK A01 T00670007  RH  066%=      5-min Rain = 0
KPVS 181430Z 24010KT 07/01 A2979 RMK A01 T00670008  RH  066%=      5-min Rain = 0
KPVS 181435Z 24010G15KT 07/01 A2979 RMK A01 T00680008  RH  066%=      5-min Rain = 0
KPVS 181440Z 24010G15KT 07/01 A2979 RMK A01 T00700008  RH  066%=      5-min Rain = 0
KPVS 181445Z 25010G15KT 07/01 A2979 RMK A01 T00730009  RH  065%=      5-min Rain = 0
KPVS 181450Z 25010KT 08/01 A2978 RMK A01 T00800010  RH  062%=      5-min Rain = 0
KPVS 181455Z 25011G17KT 09/01 A2978 RMK A01 T00890011  RH  059%=      5-min Rain = 0
KPVS 181500Z 25011KT 10/01 A2978 RMK A01 T00980012  RH  056%=      5-min Rain = 0
KPVS 181505Z 24012G18KT 11/01 A2978 RMK A01 T01060013  RH  053%=      5-min Rain = 0
KPVS 181510Z 24011G16KT 11/01 A2978 RMK A01 T01130013  RH  051%=      5-min Rain = 0
KPVS 181515Z 24011G18KT 12/01 A2978 RMK A01 T01170012  RH  049%=      5-min Rain = 0
KPVS 181520Z 25011G20KT 12/01 A2978 RMK A01 T01190009  RH  048%=      5-min Rain = 0
KPVS 181525Z 24012G20KT 12/01 A2978 RMK A01 T01210007  RH  046%=      5-min Rain = 0
KPVS 181530Z 25014G22KT 12/01 A2978 RMK A01 T01200006  RH  046%=      5-min Rain = 0
KPVS 181535Z 25013G22KT 12/01 A2978 RMK A01 T01180008  RH  048%=      5-min Rain = 0
KPVS 181540Z 25013G19KT 12/01 A2978 RMK A01 T01160010  RH  049%=      5-min Rain = 0
KPVS 181545Z 25013G19KT 12/01 A2978 RMK A01 T01180011  RH  048%=      5-min Rain = 0
KPVS 181550Z 25014G22KT 12/01 A2978 RMK A01 T01180010  RH  048%=      5-min Rain = 0
KPVS 181555Z 26015G21KT 12/01 A2977 RMK A01 T01180010  RH  048%=      5-min Rain = 0
KPVS 181600Z 26015G22KT 12/01 A2977 RMK A01 T01210011  RH  047%=      5-min Rain = 0
KPVS 181605Z 26014G21KT 12/01 A2977 RMK A01 T01240011  RH  046%=      5-min Rain = 0
KPVS 181610Z 26015G21KT 12/01 A2977 RMK A01 T01220010  RH  047%=      5-min Rain = 0
KPVS 181615Z 26015G20KT 12/01 A2977 RMK A01 T01200009  RH  047%=      5-min Rain = 0
KPVS 181620Z 26014G21KT 12/01 A2977 RMK A01 T01210008  RH  047%=      5-min Rain = 0
KPVS 181625Z 27014KT 12/01 A2977 RMK A01 T01240008  RH  046%=      5-min Rain = 0
KPVS 181630Z 27012G17KT 13/01 A2977 RMK A01 T01290010  RH  044%=      5-min Rain = 0
KPVS 181635Z 27015G25KT 14/01 A2977 RMK A01 T01380009  RH  042%=      5-min Rain = 0
KPVS 181640Z 26017G24KT 14/01 A2977 RMK A01 T01430006  RH  040%=      5-min Rain = 0
KPVS 181645Z 26017G24KT 15/01 A2976 RMK A01 T01450006  RH  039%=      5-min Rain = 0
KPVS 181650Z 27018G26KT 15/01 A2976 RMK A01 T01480005  RH  038%=      5-min Rain = 0
KPVS 181655Z 27018G26KT 15/00 A2976 RMK A01 T01530002  RH  036%=      5-min Rain = 0
KPVS 181700Z 27019G24KT 16/00 A2975 RMK A01 T015600-0  RH  035%=      5-min Rain = 0
KPVS 181705Z 27018G26KT 16/00 A2976 RMK A01 T01610001  RH  034%=      5-min Rain = 0
KPVS 181710Z 27016G23KT 17/00 A2975 RMK A01 T01660001  RH  033%=      5-min Rain = 0
KPVS 181715Z 27018G26KT 17/00 A2974 RMK A01 T016700-0  RH  032%=      5-min Rain = 0
KPVS 181720Z 26020G29KT 17/M00 A2974 RMK A01 T01681002  RH  032%=      5-min Rain = 0
KPVS 181725Z 26019G30KT 17/M00 A2974 RMK A01 T01701002  RH  031%=      5-min Rain = 0
KPVS 181730Z 26017G23KT 18/00 A2974 RMK A01 T01750000  RH  031%=      5-min Rain = 0
KPVS 181735Z 25019G32KT 18/M00 A2974 RMK A01 T01751001  RH  031%=      5-min Rain = 0
KPVS 181740Z 26019G27KT 18/00 A2974 RMK A01 T01770000  RH  031%=      5-min Rain = 0
KPVS 181745Z 25023G35KT 18/00 A2973 RMK A01 T01780002  RH  031%=      5-min Rain = 0
KPVS 181750Z 26021G30KT 18/00 A2973 RMK A01 T01760001  RH  031%=      5-min Rain = 0
KPVS 181755Z 25023G33KT 18/00 A2972 RMK A01 T01780003  RH  031%=      5-min Rain = 0
KPVS 181800Z 25023G33KT 18/00 A2972 RMK A01 T01770003  RH  031%=      5-min Rain = 0
KPVS 181805Z 25023G33KT 18/00 A2971 RMK A01 T01770004  RH  031%=      5-min Rain = 0
KPVS 181810Z 25022G31KT 18/01 A297 RMK A01 T01790006  RH  032%=      5-min Rain = 0
KPVS 181815Z 25024G33KT 18/01 A297 RMK A01 T01800005  RH  031%=      5-min Rain = 0
KPVS 181820Z 25025G36KT 18/00 A297 RMK A01 T01790004  RH  031%=      5-min Rain = 0
KPVS 181825Z 26023G33KT 18/01 A297 RMK A01 T01790005  RH  031%=      5-min Rain = 0
KPVS 181830Z 27023G37KT 18/01 A2969 RMK A01 T01830006  RH  031%=      5-min Rain = 0
KPVS 181835Z 26021G34KT 18/01 A2969 RMK A01 T01830007  RH  031%=      5-min Rain = 0
KPVS 181840Z 27019G26KT 19/01 A2969 RMK A01 T01870008  RH  030%=      5-min Rain = 0
KPVS 181845Z 27023G33KT 19/01 A2968 RMK A01 T01860008  RH  031%=      5-min Rain = 0
KPVS 181850Z 27022G32KT 18/01 A2968 RMK A01 T01840008  RH  031%=      5-min Rain = 0
KPVS 181855Z 27022G31KT 19/01 A2968 RMK A01 T01860009  RH  031%=      5-min Rain = 0
KPVS 181900Z 27025G32KT 18/01 A2967 RMK A01 T01820008  RH  031%=      5-min Rain = 0
KPVS 181905Z 27021G35KT 18/01 A2967 RMK A01 T01830009  RH  031%=      5-min Rain = 0
KPVS 181910Z 27026G36KT 18/01 A2966 RMK A01 T01820009  RH  032%=      5-min Rain = 0
KPVS 181915Z 27025G33KT 18/01 A2965 RMK A01 T01810009  RH  032%=      5-min Rain = 0
KPVS 181920Z 27023G31KT 18/01 A2965 RMK A01 T01820008  RH  031%=      5-min Rain = 0
KPVS 181925Z 27020G26KT 19/01 A2965 RMK A01 T01850011  RH  031%=      5-min Rain = 0
KPVS 181930Z 26023G32KT 18/01 A2965 RMK A01 T01840008  RH  031%=      5-min Rain = 0
KPVS 181935Z 27023G35KT 18/00 A2965 RMK A01 T01810004  RH  031%=      5-min Rain = 0
KPVS 181940Z 27020G30KT 18/00 A2965 RMK A01 T01840003  RH  030%=      5-min Rain = 0
KPVS 181945Z 26021G32KT 18/01 A2964 RMK A01 T01840007  RH  031%=      5-min Rain = 0
KPVS 181950Z 25024G33KT 18/01 A2964 RMK A01 T01820007  RH  031%=      5-min Rain = 0
KPVS 181955Z 26019G28KT 18/01 A2964 RMK A01 T01820007  RH  031%=      5-min Rain = 0
KPVS 182000Z 25023G31KT 18/01 A2963 RMK A01 T01820009  RH  032%=      5-min Rain = 0
KPVS 182005Z 25023G34KT 18/01 A2963 RMK A01 T01810012  RH  033%=      5-min Rain = 0
KPVS 182010Z 26022G36KT 18/01 A2962 RMK A01 T01800012  RH  033%=      5-min Rain = 0
KPVS 182015Z 27024G30KT 18/01 A2962 RMK A01 T01810007  RH  031%=      5-min Rain = 0
KPVS 182020Z 26020G29KT 18/01 A2962 RMK A01 T01840006  RH  031%=      5-min Rain = 0
KPVS 182025Z 26022G30KT 19/00 A2962 RMK A01 T01850004  RH  030%=      5-min Rain = 0
KPVS 182030Z 26023G34KT 18/00 A2962 RMK A01 T01840001  RH  029%=      5-min Rain = 0
KPVS 182035Z 26020G33KT 19/00 A2962 RMK A01 T01860003  RH  029%=      5-min Rain = 0
KPVS 182040Z 26021G36KT 19/00 A2962 RMK A01 T01890004  RH  029%=      5-min Rain = 0
KPVS 182045Z 27021G30KT 18/01 A2962 RMK A01 T01830005  RH  030%=      5-min Rain = 0
KPVS 182050Z 26023G36KT 19/01 A2962 RMK A01 T01880008  RH  030%=      5-min Rain = 0
KPVS 182055Z 26022G31KT 19/01 A2962 RMK A01 T01860005  RH  030%=      5-min Rain = 0
KPVS 182100Z 25022G34KT 18/00 A2962 RMK A01 T01800002  RH  031%=      5-min Rain = 0
KPVS 182105Z 25022G31KT 18/00 A2962 RMK A01 T01760002  RH  031%=      5-min Rain = 0
KPVS 182110Z 26022G30KT 17/00 A2962 RMK A01 T01710002  RH  032%=      5-min Rain = 0
KPVS 182115Z 25023G32KT 17/00 A2963 RMK A01 T016800-0  RH  032%=      5-min Rain = 0
KPVS 182120Z 25022G35KT 17/00 A2963 RMK A01 T016600-0  RH  033%=      5-min Rain = 0
KPVS 182125Z 25021G34KT 17/00 A2963 RMK A01 T01660001  RH  033%=      5-min Rain = 0
KPVS 182130Z 25022G31KT 17/00 A2962 RMK A01 T01690002  RH  033%=      5-min Rain = 0
KPVS 182135Z 25023G31KT 17/01 A2962 RMK A01 T01720007  RH  033%=      5-min Rain = 0
KPVS 182140Z 25024G35KT 18/01 A2962 RMK A01 T01750007  RH  032%=      5-min Rain = 0
KPVS 182145Z 25022G31KT 18/00 A2962 RMK A01 T01760002  RH  031%=      5-min Rain = 0
KPVS 182150Z 26023G31KT 17/M00 A2962 RMK A01 T01731001  RH  031%=      5-min Rain = 0
KPVS 182155Z 26022G35KT 17/M00 A2962 RMK A01 T01721002  RH  031%=      5-min Rain = 0
KPVS 182200Z 26021G30KT 17/M00 A2963 RMK A01 T01671002  RH  032%=      5-min Rain = 0
KPVS 182205Z 25022G33KT 16/M00 A2963 RMK A01 T01641002  RH  033%=      5-min Rain = 0
KPVS 182210Z 25020G28KT 16/M00 A2963 RMK A01 T01621001  RH  033%=      5-min Rain = 0
KPVS 182215Z 26017G25KT 16/00 A2963 RMK A01 T01600000  RH  034%=      5-min Rain = 0
KPVS 182220Z 25015G22KT 16/00 A2963 RMK A01 T01590002  RH  035%=      5-min Rain = 0
KPVS 182225Z 26016G26KT 16/00 A2963 RMK A01 T01590001  RH  034%=      5-min Rain = 0
KPVS 182230Z 26016G23KT 16/M00 A2963 RMK A01 T01591002  RH  034%=      5-min Rain = 0
KPVS 182235Z 27018G28KT 16/M01 A2964 RMK A01 T01591012  RH  031%=      5-min Rain = 0
KPVS 182240Z 27020G26KT 16/M03 A2964 RMK A01 T01591027  RH  028%=      5-min Rain = 0
KPVS 182245Z 28017G23KT 16/M03 A2964 RMK A01 T01581030  RH  028%=      5-min Rain = 0
KPVS 182250Z 27016G21KT 16/M03 A2964 RMK A01 T01581030  RH  028%=      5-min Rain = 0
KPVS 182255Z 27019G30KT 16/M04 A2964 RMK A01 T01591041  RH  025%=      5-min Rain = 0
KPVS 182300Z 28021G27KT 16/M05 A2964 RMK A01 T01571046  RH  025%=      5-min Rain = 0
KPVS 182305Z 28017G25KT 16/M05 A2964 RMK A01 T01551047  RH  025%=      5-min Rain = 0
KPVS 182310Z 28017G30KT 15/M05 A2964 RMK A01 T01541048  RH  025%=      5-min Rain = 0
KPVS 182315Z 27018G29KT 16/M05 A2964 RMK A01 T01561048  RH  025%=      5-min Rain = 0
KPVS 182320Z 27018G24KT 16/M05 A2964 RMK A01 T01561049  RH  024%=      5-min Rain = 0
KPVS 182325Z 27018G24KT 16/M05 A2964 RMK A01 T01561051  RH  024%=      5-min Rain = 0
KPVS 182330Z 27015G24KT 15/M05 A2964 RMK A01 T01531052  RH  024%=      5-min Rain = 0
KPVS 182335Z 27017G23KT 15/M05 A2964 RMK A01 T01501054  RH  024%=      5-min Rain = 0
KPVS 182340Z 27021G30KT 15/M05 A2964 RMK A01 T01471048  RH  026%=      5-min Rain = 0
KPVS 182345Z 27019G29KT 15/M04 A2965 RMK A01 T01451043  RH  027%=      5-min Rain = 0
KPVS 182350Z 27015G22KT 14/M04 A2965 RMK A01 T01421038  RH  029%=      5-min Rain = 0
KPVS 182355Z 27015G21KT 14/M04 A2965 RMK A01 T01391039  RH  029%=      5-min Rain = 0
KPVS 190000Z 27015G21KT 14/M04 A2965 RMK A01 T01361039  RH  030%=      5-min Rain = 0
KPVS 190005Z 27014G20KT 13/M04 A2965 RMK A01 T01341038  RH  030%=      5-min Rain = 0
KPVS 190010Z 27015G22KT 13/M04 A2965 RMK A01 T01331038  RH  031%=      5-min Rain = 0
KPVS 190015Z 27014G20KT 13/M04 A2965 RMK A01 T01321040  RH  030%=      5-min Rain = 0
KPVS 190020Z 27015G22KT 13/M04 A2965 RMK A01 T01301042  RH  030%=      5-min Rain = 0
KPVS 190025Z 27013G18KT 13/M04 A2965 RMK A01 T01271043  RH  031%=      5-min Rain = 0
KPVS 190030Z 30022G33KT 12/M03 A2966 RMK A01 T01231034  RH  034%=      5-min Rain = 0
KPVS 190035Z 34024G34KT 10/00 A2968 RMK A01 T009800-0  RH  051%=      5-min Rain = 0
KPVS 190040Z 35022G32KT 09/00 A2969 RMK A01 T00850003  RH  057%=      5-min Rain = 0
KPVS 190045Z 35025G34KT 08/00 A297 RMK A01 T00780003  RH  060%=      5-min Rain = 0
KPVS 190050Z 35024G33KT 07/00 A2971 RMK A01 T00710000  RH  062%=      5-min Rain = 0
KPVS 190055Z 35023G32KT 07/00 A2973 RMK A01 T00650001  RH  064%=      5-min Rain = 0
KPVS 190100Z 35021G31KT 06/00 A2973 RMK A01 T00600001  RH  067%=      5-min Rain = 0
KPVS 190105Z 35025G35KT 06/00 A2974 RMK A01 T00570001  RH  068%=      5-min Rain = 0
KPVS 190110Z 35025G36KT 06/00 A2975 RMK A01 T00550001  RH  069%=      5-min Rain = 0
KPVS 190115Z 35022G29KT 05/00 A2976 RMK A01 T00530001  RH  070%=      5-min Rain = 0
KPVS 190120Z 35024G33KT 05/00 A2976 RMK A01 T005000-0  RH  071%=      5-min Rain = 0
KPVS 190125Z 34017G25KT 05/M00 A2977 RMK A01 T00481001  RH  072%=      5-min Rain = 0
KPVS 190130Z 35020G30KT 05/M00 A2978 RMK A01 T00461002  RH  072%=      5-min Rain = 0
KPVS 190135Z 34022G34KT 04/M00 A2979 RMK A01 T00441002  RH  073%=      5-min Rain = 0
KPVS 190140Z 34025G38KT 05/M00 A298 RMK A01 T00451003  RH  072%=      5-min Rain = 0
KPVS 190145Z 34025G36KT 05/M00 A298 RMK A01 T00461003  RH  071%=      5-min Rain = 0
KPVS 190150Z 34022G36KT 05/M00 A2981 RMK A01 T00461003  RH  072%=      5-min Rain = 0
KPVS 190155Z 34020G30KT 05/M00 A2982 RMK A01 T00461002  RH  072%=      5-min Rain = 0
KPVS 190200Z 34025G33KT 05/M00 A2982 RMK A01 T00451002  RH  072%=      5-min Rain = 0
KPVS 190205Z 34021G32KT 04/M00 A2983 RMK A01 T00431003  RH  073%=      5-min Rain = 0
KPVS 190210Z 34022G34KT 04/M00 A2983 RMK A01 T00421002  RH  074%=      5-min Rain = 0
KPVS 190215Z 35021G35KT 04/M00 A2984 RMK A01 T00401004  RH  074%=      5-min Rain = 0
KPVS 190220Z 34023G31KT 04/M01 A2984 RMK A01 T00361007  RH  074%=      5-min Rain = 0
KPVS 190225Z 35023G36KT 03/M01 A2985 RMK A01 T00341009  RH  074%=      5-min Rain = 0
KPVS 190230Z 35023G36KT 03/M01 A2985 RMK A01 T00311011  RH  075%=      5-min Rain = 0
KPVS 190235Z 35025G34KT 03/M01 A2986 RMK A01 T00291012  RH  076%=      5-min Rain = 0
KPVS 190240Z 35026G35KT 03/M01 A2986 RMK A01 T00281014  RH  075%=      5-min Rain = 0
KPVS 190245Z 35022G28KT 03/M01 A2987 RMK A01 T00271012  RH  076%=      5-min Rain = 0
KPVS 190250Z 35025G37KT 03/M01 A2987 RMK A01 T00261011  RH  077%=      5-min Rain = 0
KPVS 190255Z 34022G37KT 03/M01 A2988 RMK A01 T00271014  RH  075%=      5-min Rain = 0
KPVS 190300Z 35027G37KT 03/M02 A2988 RMK A01 T00271022  RH  071%=      5-min Rain = 0
KPVS 190305Z 35026G39KT 03/M02 A2989 RMK A01 T00261024  RH  071%=      5-min Rain = 0
KPVS 190310Z 35023G35KT 03/M02 A299 RMK A01 T00251023  RH  071%=      5-min Rain = 0
KPVS 190315Z 35023G34KT 02/M02 A299 RMK A01 T00241022  RH  072%=      5-min Rain = 0
KPVS 190320Z 35025G36KT 02/M02 A299 RMK A01 T00231019  RH  075%=      5-min Rain = 0
KPVS 190325Z 35023G35KT 02/M02 A2991 RMK A01 T00221016  RH  077%=      5-min Rain = 0
KPVS 190330Z 34020G30KT 02/M02 A2992 RMK A01 T00211015  RH  078%=      5-min Rain = 0
KPVS 190335Z 34020G31KT 02/M01 A2992 RMK A01 T00211014  RH  078%=      5-min Rain = 0
KPVS 190340Z 34025G36KT 02/M02 A2993 RMK A01 T00211017  RH  077%=      5-min Rain = 0
KPVS 190345Z 34026G33KT 02/M02 A2993 RMK A01 T00211018  RH  076%=      5-min Rain = 0
KPVS 190350Z 34022G33KT 02/M02 A2994 RMK A01 T00201020  RH  076%=      5-min Rain = 0
KPVS 190355Z 35020G31KT 02/M02 A2994 RMK A01 T00191023  RH  075%=      5-min Rain = 0
KPVS 190400Z 34020G32KT 02/M02 A2995 RMK A01 T00181022  RH  076%=      5-min Rain = 0
KPVS 190405Z 34019G28KT 02/M02 A2995 RMK A01 T00171021  RH  077%=      5-min Rain = 0
KPVS 190410Z 34021G31KT 02/M02 A2995 RMK A01 T00171023  RH  075%=      5-min Rain = 0
KPVS 190415Z 34020G28KT 02/M02 A2995 RMK A01 T00171023  RH  076%=      5-min Rain = 0
KPVS 190420Z 35021G29KT 02/M02 A2996 RMK A01 T00171022  RH  077%=      5-min Rain = 0
KPVS 190425Z 34023G33KT 02/M02 A2996 RMK A01 T00161021  RH  077%=      5-min Rain = 0
KPVS 190430Z 34020G31KT 02/M02 A2996 RMK A01 T00151021  RH  077%=      5-min Rain = 0
KPVS 190435Z 34025G40KT 02/M02 A2996 RMK A01 T00151023  RH  077%=      5-min Rain = 0
KPVS 190440Z 34024G31KT 01/M02 A2997 RMK A01 T00141021  RH  078%=      5-min Rain = 0
KPVS 190445Z 34023G36KT 01/M02 A2997 RMK A01 T00131020  RH  080%=      5-min Rain = 0
KPVS 190450Z 34028G39KT 01/M02 A2998 RMK A01 T00111019  RH  081%=      5-min Rain = 0
KPVS 190455Z 34025G41KT 01/M02 A2999 RMK A01 T00091017  RH  084%=      5-min Rain = 0
KPVS 190500Z 34023G33KT 01/M02 A2999 RMK A01 T00061015  RH  087%=      5-min Rain = 0
KPVS 190505Z 34029G39KT 01/M02 A30 RMK A01 T00051018  RH  085%=      5-min Rain = 0
KPVS 190510Z 34028G43KT 01/M02 A30 RMK A01 T00051021  RH  083%=      5-min Rain = 0
KPVS 190515Z 34026G37KT 01/M02 A30 RMK A01 T00051021  RH  083%=      5-min Rain = 0
KPVS 190520Z 34021G34KT 00/M02 A3001 RMK A01 T00031019  RH  086%=      5-min Rain = 0
KPVS 190525Z 34021G30KT 00/M02 A3002 RMK A01 T00011017  RH  089%=      5-min Rain = 0
KPVS 190530Z 34022G30KT M00/M02 A3002 RMK A01 T10011017  RH  091%=      5-min Rain = 0
KPVS 190535Z 35018G30KT M00/M02 A3002 RMK A01 T10021016  RH  091%=      5-min Rain = 0
KPVS 190540Z 34018G24KT M00/M02 A3003 RMK A01 T10011017  RH  091%=      5-min Rain = 0
KPVS 190545Z 35015G21KT 00/02 A3003 RMK A01 T00-00-16  RH  090%=      5-min Rain = 0
KPVS 190550Z 34015G21KT 00/02 A3003 RMK A01 T00000-16  RH  090%=      5-min Rain = 0
KPVS 190555Z 34015G25KT 00/M02 A3004 RMK A01 T00011015  RH  090%=      5-min Rain = 0

Page generated in 0.0219 seconds.